sensor_id;sensor_type;location;lat;lon;timestamp;P1;durP1;ratioP1;P2;durP2;ratioP2
80584;SDS011;70137;56.482;9.154;2023-06-19T00:01:58;8.50;;;6.90;;
80584;SDS011;70137;56.482;9.154;2023-06-19T00:04:24;11.70;;;7.03;;
80584;SDS011;70137;56.482;9.154;2023-06-19T00:06:50;9.20;;;7.07;;
80584;SDS011;70137;56.482;9.154;2023-06-19T00:09:16;8.65;;;7.05;;
80584;SDS011;70137;56.482;9.154;2023-06-19T00:11:42;9.95;;;6.90;;
80584;SDS011;70137;56.482;9.154;2023-06-19T00:14:07;8.02;;;6.95;;
80584;SDS011;70137;56.482;9.154;2023-06-19T00:16:33;11.07;;;8.35;;
80584;SDS011;70137;56.482;9.154;2023-06-19T00:18:58;10.07;;;7.82;;
80584;SDS011;70137;56.482;9.154;2023-06-19T00:21:24;10.60;;;8.20;;
80584;SDS011;70137;56.482;9.154;2023-06-19T00:23:50;8.60;;;7.25;;
80584;SDS011;70137;56.482;9.154;2023-06-19T00:26:17;10.00;;;8.20;;
80584;SDS011;70137;56.482;9.154;2023-06-19T00:28:42;9.57;;;7.80;;
80584;SDS011;70137;56.482;9.154;2023-06-19T00:31:10;10.20;;;7.30;;
80584;SDS011;70137;56.482;9.154;2023-06-19T00:33:38;12.05;;;7.97;;
80584;SDS011;70137;56.482;9.154;2023-06-19T00:36:08;10.95;;;7.35;;
80584;SDS011;70137;56.482;9.154;2023-06-19T00:38:34;9.93;;;7.85;;
80584;SDS011;70137;56.482;9.154;2023-06-19T00:40:59;9.90;;;7.53;;
80584;SDS011;70137;56.482;9.154;2023-06-19T00:43:25;9.40;;;7.07;;
80584;SDS011;70137;56.482;9.154;2023-06-19T00:45:51;8.23;;;6.85;;
80584;SDS011;70137;56.482;9.154;2023-06-19T00:48:16;8.30;;;6.80;;
80584;SDS011;70137;56.482;9.154;2023-06-19T00:50:42;11.20;;;8.65;;
80584;SDS011;70137;56.482;9.154;2023-06-19T00:53:07;9.75;;;7.68;;
80584;SDS011;70137;56.482;9.154;2023-06-19T00:55:33;9.90;;;7.28;;
80584;SDS011;70137;56.482;9.154;2023-06-19T00:57:59;7.43;;;6.60;;
80584;SDS011;70137;56.482;9.154;2023-06-19T01:00:25;8.85;;;6.70;;
80584;SDS011;70137;56.482;9.154;2023-06-19T01:02:51;9.00;;;7.70;;
80584;SDS011;70137;56.482;9.154;2023-06-19T01:05:16;9.93;;;7.30;;
80584;SDS011;70137;56.482;9.154;2023-06-19T01:10:32;11.00;;;7.82;;
80584;SDS011;70137;56.482;9.154;2023-06-19T01:13:07;10.85;;;8.05;;
80584;SDS011;70137;56.482;9.154;2023-06-19T01:15:37;11.25;;;8.32;;
80584;SDS011;70137;56.482;9.154;2023-06-19T01:18:05;11.73;;;8.48;;
80584;SDS011;70137;56.482;9.154;2023-06-19T01:20:31;11.02;;;8.48;;
80584;SDS011;70137;56.482;9.154;2023-06-19T01:23:04;10.20;;;8.32;;
80584;SDS011;70137;56.482;9.154;2023-06-19T01:25:31;12.75;;;8.30;;
80584;SDS011;70137;56.482;9.154;2023-06-19T01:27:56;15.07;;;9.70;;
80584;SDS011;70137;56.482;9.154;2023-06-19T01:30:22;11.40;;;8.43;;
80584;SDS011;70137;56.482;9.154;2023-06-19T01:35:19;11.77;;;8.40;;
80584;SDS011;70137;56.482;9.154;2023-06-19T01:37:48;11.10;;;7.20;;
80584;SDS011;70137;56.482;9.154;2023-06-19T01:40:15;9.73;;;7.72;;
80584;SDS011;70137;56.482;9.154;2023-06-19T01:42:42;10.23;;;8.10;;
80584;SDS011;70137;56.482;9.154;2023-06-19T01:45:08;9.13;;;7.25;;
80584;SDS011;70137;56.482;9.154;2023-06-19T01:47:34;10.70;;;8.20;;
80584;SDS011;70137;56.482;9.154;2023-06-19T01:50:00;11.52;;;9.30;;
80584;SDS011;70137;56.482;9.154;2023-06-19T01:52:25;11.35;;;9.10;;
80584;SDS011;70137;56.482;9.154;2023-06-19T01:54:51;7.95;;;6.95;;
80584;SDS011;70137;56.482;9.154;2023-06-19T01:57:16;7.50;;;6.45;;
80584;SDS011;70137;56.482;9.154;2023-06-19T01:59:43;6.90;;;6.20;;
80584;SDS011;70137;56.482;9.154;2023-06-19T02:02:08;6.07;;;5.47;;
80584;SDS011;70137;56.482;9.154;2023-06-19T02:04:34;8.73;;;5.50;;
80584;SDS011;70137;56.482;9.154;2023-06-19T02:06:59;5.93;;;5.30;;
80584;SDS011;70137;56.482;9.154;2023-06-19T02:09:25;11.43;;;7.60;;
80584;SDS011;70137;56.482;9.154;2023-06-19T02:11:50;9.82;;;8.63;;
80584;SDS011;70137;56.482;9.154;2023-06-19T02:14:15;14.27;;;9.75;;
80584;SDS011;70137;56.482;9.154;2023-06-19T02:16:41;10.55;;;8.38;;
80584;SDS011;70137;56.482;9.154;2023-06-19T02:19:08;8.93;;;6.72;;
80584;SDS011;70137;56.482;9.154;2023-06-19T02:21:36;7.13;;;5.65;;
80584;SDS011;70137;56.482;9.154;2023-06-19T02:24:02;10.32;;;7.22;;
80584;SDS011;70137;56.482;9.154;2023-06-19T02:26:28;8.57;;;7.45;;
80584;SDS011;70137;56.482;9.154;2023-06-19T02:28:54;11.40;;;8.23;;
80584;SDS011;70137;56.482;9.154;2023-06-19T02:31:21;12.25;;;9.32;;
80584;SDS011;70137;56.482;9.154;2023-06-19T02:33:49;9.77;;;7.70;;
80584;SDS011;70137;56.482;9.154;2023-06-19T02:36:14;11.57;;;8.45;;
80584;SDS011;70137;56.482;9.154;2023-06-19T02:38:44;8.18;;;7.32;;
80584;SDS011;70137;56.482;9.154;2023-06-19T02:41:11;9.32;;;7.88;;
80584;SDS011;70137;56.482;9.154;2023-06-19T02:43:36;11.07;;;8.27;;
80584;SDS011;70137;56.482;9.154;2023-06-19T02:46:02;15.32;;;11.13;;
80584;SDS011;70137;56.482;9.154;2023-06-19T02:48:27;23.27;;;12.05;;
80584;SDS011;70137;56.482;9.154;2023-06-19T02:50:53;14.30;;;11.18;;
80584;SDS011;70137;56.482;9.154;2023-06-19T02:53:18;14.90;;;11.10;;
80584;SDS011;70137;56.482;9.154;2023-06-19T02:55:43;16.63;;;12.38;;
80584;SDS011;70137;56.482;9.154;2023-06-19T02:58:08;12.45;;;9.60;;
80584;SDS011;70137;56.482;9.154;2023-06-19T03:00:34;17.27;;;12.35;;
80584;SDS011;70137;56.482;9.154;2023-06-19T03:02:59;11.85;;;9.75;;
80584;SDS011;70137;56.482;9.154;2023-06-19T03:05:24;13.77;;;10.90;;
80584;SDS011;70137;56.482;9.154;2023-06-19T03:07:52;14.20;;;11.45;;
80584;SDS011;70137;56.482;9.154;2023-06-19T03:10:17;13.73;;;11.13;;
80584;SDS011;70137;56.482;9.154;2023-06-19T03:12:43;13.95;;;10.40;;
80584;SDS011;70137;56.482;9.154;2023-06-19T03:15:08;14.63;;;10.50;;
80584;SDS011;70137;56.482;9.154;2023-06-19T03:17:34;25.88;;;9.02;;
80584;SDS011;70137;56.482;9.154;2023-06-19T03:19:59;28.65;;;9.73;;
80584;SDS011;70137;56.482;9.154;2023-06-19T03:22:24;19.40;;;11.25;;
80584;SDS011;70137;56.482;9.154;2023-06-19T03:24:50;24.25;;;13.60;;
80584;SDS011;70137;56.482;9.154;2023-06-19T03:27:15;18.65;;;12.90;;
80584;SDS011;70137;56.482;9.154;2023-06-19T03:29:40;48.97;;;12.23;;
80584;SDS011;70137;56.482;9.154;2023-06-19T03:32:06;29.83;;;12.13;;
80584;SDS011;70137;56.482;9.154;2023-06-19T03:34:31;19.30;;;11.63;;
80584;SDS011;70137;56.482;9.154;2023-06-19T03:36:56;13.35;;;10.13;;
80584;SDS011;70137;56.482;9.154;2023-06-19T03:39:22;12.75;;;10.38;;
80584;SDS011;70137;56.482;9.154;2023-06-19T03:41:48;14.68;;;11.50;;
80584;SDS011;70137;56.482;9.154;2023-06-19T03:44:13;20.38;;;12.57;;
80584;SDS011;70137;56.482;9.154;2023-06-19T03:46:38;15.93;;;11.52;;
80584;SDS011;70137;56.482;9.154;2023-06-19T03:49:03;12.18;;;10.00;;
80584;SDS011;70137;56.482;9.154;2023-06-19T03:51:29;11.15;;;8.68;;
80584;SDS011;70137;56.482;9.154;2023-06-19T03:53:55;11.63;;;9.88;;
80584;SDS011;70137;56.482;9.154;2023-06-19T03:56:20;24.77;;;10.27;;
80584;SDS011;70137;56.482;9.154;2023-06-19T03:58:46;19.23;;;12.02;;
80584;SDS011;70137;56.482;9.154;2023-06-19T04:01:11;16.60;;;12.68;;
80584;SDS011;70137;56.482;9.154;2023-06-19T04:03:37;13.95;;;10.57;;
80584;SDS011;70137;56.482;9.154;2023-06-19T04:06:02;13.13;;;9.23;;
80584;SDS011;70137;56.482;9.154;2023-06-19T04:08:27;12.50;;;8.52;;
80584;SDS011;70137;56.482;9.154;2023-06-19T04:10:53;12.52;;;8.95;;
80584;SDS011;70137;56.482;9.154;2023-06-19T04:13:18;17.45;;;8.95;;
80584;SDS011;70137;56.482;9.154;2023-06-19T04:15:44;11.98;;;9.32;;
80584;SDS011;70137;56.482;9.154;2023-06-19T04:18:09;14.38;;;10.93;;
80584;SDS011;70137;56.482;9.154;2023-06-19T04:20:35;9.65;;;8.30;;
80584;SDS011;70137;56.482;9.154;2023-06-19T04:23:00;11.75;;;9.40;;
80584;SDS011;70137;56.482;9.154;2023-06-19T04:25:26;16.65;;;11.05;;
80584;SDS011;70137;56.482;9.154;2023-06-19T04:27:51;17.52;;;12.35;;
80584;SDS011;70137;56.482;9.154;2023-06-19T04:30:16;19.77;;;11.18;;
80584;SDS011;70137;56.482;9.154;2023-06-19T04:32:42;13.38;;;9.43;;
80584;SDS011;70137;56.482;9.154;2023-06-19T04:35:14;12.90;;;9.32;;
80584;SDS011;70137;56.482;9.154;2023-06-19T04:37:40;12.32;;;9.10;;
80584;SDS011;70137;56.482;9.154;2023-06-19T04:40:05;12.93;;;9.85;;
80584;SDS011;70137;56.482;9.154;2023-06-19T04:42:34;11.90;;;9.57;;
80584;SDS011;70137;56.482;9.154;2023-06-19T04:44:59;12.02;;;9.00;;
80584;SDS011;70137;56.482;9.154;2023-06-19T04:47:25;12.02;;;9.80;;
80584;SDS011;70137;56.482;9.154;2023-06-19T04:49:50;15.35;;;10.23;;
80584;SDS011;70137;56.482;9.154;2023-06-19T04:52:15;14.65;;;10.55;;
80584;SDS011;70137;56.482;9.154;2023-06-19T04:54:41;13.13;;;10.07;;
80584;SDS011;70137;56.482;9.154;2023-06-19T04:57:06;11.85;;;8.77;;
80584;SDS011;70137;56.482;9.154;2023-06-19T04:59:32;12.93;;;10.50;;
80584;SDS011;70137;56.482;9.154;2023-06-19T05:01:58;14.35;;;11.07;;
80584;SDS011;70137;56.482;9.154;2023-06-19T05:04:24;27.50;;;11.35;;
80584;SDS011;70137;56.482;9.154;2023-06-19T05:06:49;14.82;;;10.35;;
80584;SDS011;70137;56.482;9.154;2023-06-19T05:09:15;12.38;;;10.13;;
80584;SDS011;70137;56.482;9.154;2023-06-19T05:11:41;17.15;;;9.77;;
80584;SDS011;70137;56.482;9.154;2023-06-19T05:14:06;14.48;;;9.70;;
80584;SDS011;70137;56.482;9.154;2023-06-19T05:16:33;15.52;;;9.77;;
80584;SDS011;70137;56.482;9.154;2023-06-19T05:18:58;16.17;;;9.43;;
80584;SDS011;70137;56.482;9.154;2023-06-19T05:21:24;13.60;;;9.48;;
80584;SDS011;70137;56.482;9.154;2023-06-19T05:23:49;15.00;;;9.35;;
80584;SDS011;70137;56.482;9.154;2023-06-19T05:26:18;17.02;;;9.80;;
80584;SDS011;70137;56.482;9.154;2023-06-19T05:28:45;11.30;;;8.80;;
80584;SDS011;70137;56.482;9.154;2023-06-19T05:31:10;11.10;;;7.55;;
80584;SDS011;70137;56.482;9.154;2023-06-19T05:33:36;11.07;;;7.90;;
80584;SDS011;70137;56.482;9.154;2023-06-19T05:36:01;11.35;;;8.02;;
80584;SDS011;70137;56.482;9.154;2023-06-19T05:38:27;11.95;;;8.25;;
80584;SDS011;70137;56.482;9.154;2023-06-19T05:40:55;10.50;;;8.48;;
80584;SDS011;70137;56.482;9.154;2023-06-19T05:43:20;14.38;;;9.00;;
80584;SDS011;70137;56.482;9.154;2023-06-19T05:45:47;25.48;;;9.52;;
80584;SDS011;70137;56.482;9.154;2023-06-19T05:48:12;15.25;;;8.60;;
80584;SDS011;70137;56.482;9.154;2023-06-19T05:50:37;14.63;;;7.95;;
80584;SDS011;70137;56.482;9.154;2023-06-19T05:53:03;12.43;;;6.63;;
80584;SDS011;70137;56.482;9.154;2023-06-19T05:55:28;15.20;;;7.80;;
80584;SDS011;70137;56.482;9.154;2023-06-19T05:57:54;7.70;;;5.70;;
80584;SDS011;70137;56.482;9.154;2023-06-19T06:00:20;8.15;;;6.10;;
80584;SDS011;70137;56.482;9.154;2023-06-19T06:02:45;8.02;;;5.72;;
80584;SDS011;70137;56.482;9.154;2023-06-19T06:05:11;6.70;;;5.22;;
80584;SDS011;70137;56.482;9.154;2023-06-19T06:07:36;11.10;;;5.70;;
80584;SDS011;70137;56.482;9.154;2023-06-19T06:10:02;5.90;;;4.53;;
80584;SDS011;70137;56.482;9.154;2023-06-19T06:12:27;6.35;;;5.53;;
80584;SDS011;70137;56.482;9.154;2023-06-19T06:14:53;6.60;;;5.15;;
80584;SDS011;70137;56.482;9.154;2023-06-19T06:17:18;6.30;;;5.30;;
80584;SDS011;70137;56.482;9.154;2023-06-19T06:19:44;5.90;;;5.30;;
80584;SDS011;70137;56.482;9.154;2023-06-19T06:22:09;5.60;;;4.45;;
80584;SDS011;70137;56.482;9.154;2023-06-19T06:24:34;7.22;;;4.47;;
80584;SDS011;70137;56.482;9.154;2023-06-19T06:26:59;6.28;;;4.75;;
80584;SDS011;70137;56.482;9.154;2023-06-19T06:29:25;7.28;;;4.20;;
80584;SDS011;70137;56.482;9.154;2023-06-19T06:31:50;6.25;;;4.50;;
80584;SDS011;70137;56.482;9.154;2023-06-19T06:34:18;5.35;;;4.18;;
80584;SDS011;70137;56.482;9.154;2023-06-19T06:36:44;5.60;;;4.13;;
80584;SDS011;70137;56.482;9.154;2023-06-19T06:39:10;4.72;;;4.20;;
80584;SDS011;70137;56.482;9.154;2023-06-19T06:41:35;6.85;;;4.35;;
80584;SDS011;70137;56.482;9.154;2023-06-19T06:44:01;4.93;;;4.30;;
80584;SDS011;70137;56.482;9.154;2023-06-19T06:46:26;7.40;;;4.35;;
80584;SDS011;70137;56.482;9.154;2023-06-19T06:48:52;4.60;;;3.55;;
80584;SDS011;70137;56.482;9.154;2023-06-19T06:51:17;6.00;;;4.38;;
80584;SDS011;70137;56.482;9.154;2023-06-19T06:53:42;6.00;;;4.75;;
80584;SDS011;70137;56.482;9.154;2023-06-19T06:56:08;7.32;;;5.47;;
80584;SDS011;70137;56.482;9.154;2023-06-19T06:58:33;6.22;;;4.50;;
80584;SDS011;70137;56.482;9.154;2023-06-19T07:00:58;5.65;;;4.75;;
80584;SDS011;70137;56.482;9.154;2023-06-19T07:03:24;6.65;;;4.68;;
80584;SDS011;70137;56.482;9.154;2023-06-19T07:05:49;5.45;;;4.88;;
80584;SDS011;70137;56.482;9.154;2023-06-19T07:08:14;5.90;;;5.07;;
80584;SDS011;70137;56.482;9.154;2023-06-19T07:10:40;6.03;;;4.57;;
80584;SDS011;70137;56.482;9.154;2023-06-19T07:13:05;7.95;;;5.32;;
80584;SDS011;70137;56.482;9.154;2023-06-19T07:15:30;5.47;;;4.97;;
80584;SDS011;70137;56.482;9.154;2023-06-19T07:17:56;7.38;;;5.10;;
80584;SDS011;70137;56.482;9.154;2023-06-19T07:20:22;6.25;;;5.30;;
80584;SDS011;70137;56.482;9.154;2023-06-19T07:22:50;8.07;;;5.50;;
80584;SDS011;70137;56.482;9.154;2023-06-19T07:25:16;4.93;;;4.40;;
80584;SDS011;70137;56.482;9.154;2023-06-19T07:27:42;6.97;;;5.07;;
80584;SDS011;70137;56.482;9.154;2023-06-19T07:30:07;5.50;;;5.00;;
80584;SDS011;70137;56.482;9.154;2023-06-19T07:32:33;5.47;;;4.90;;
80584;SDS011;70137;56.482;9.154;2023-06-19T07:34:59;7.28;;;5.45;;
80584;SDS011;70137;56.482;9.154;2023-06-19T07:37:24;6.15;;;5.00;;
80584;SDS011;70137;56.482;9.154;2023-06-19T07:39:50;7.25;;;5.80;;
80584;SDS011;70137;56.482;9.154;2023-06-19T07:42:17;6.75;;;5.97;;
80584;SDS011;70137;56.482;9.154;2023-06-19T07:44:43;7.78;;;5.88;;
80584;SDS011;70137;56.482;9.154;2023-06-19T07:47:09;9.07;;;7.15;;
80584;SDS011;70137;56.482;9.154;2023-06-19T07:49:38;8.20;;;6.93;;
80584;SDS011;70137;56.482;9.154;2023-06-19T07:52:04;6.50;;;5.88;;
80584;SDS011;70137;56.482;9.154;2023-06-19T07:54:30;7.53;;;6.30;;
80584;SDS011;70137;56.482;9.154;2023-06-19T07:56:55;9.00;;;7.38;;
80584;SDS011;70137;56.482;9.154;2023-06-19T07:59:21;8.77;;;6.15;;
80584;SDS011;70137;56.482;9.154;2023-06-19T08:01:46;6.45;;;5.45;;
80584;SDS011;70137;56.482;9.154;2023-06-19T08:04:11;7.25;;;5.30;;
80584;SDS011;70137;56.482;9.154;2023-06-19T08:06:37;9.40;;;5.75;;
80584;SDS011;70137;56.482;9.154;2023-06-19T08:09:02;6.22;;;5.35;;
80584;SDS011;70137;56.482;9.154;2023-06-19T08:11:28;6.72;;;5.70;;
80584;SDS011;70137;56.482;9.154;2023-06-19T08:13:53;7.28;;;5.50;;
80584;SDS011;70137;56.482;9.154;2023-06-19T08:16:19;7.28;;;5.40;;
80584;SDS011;70137;56.482;9.154;2023-06-19T08:18:45;6.03;;;5.40;;
80584;SDS011;70137;56.482;9.154;2023-06-19T08:21:11;6.65;;;5.20;;
80584;SDS011;70137;56.482;9.154;2023-06-19T08:23:36;6.47;;;5.40;;
80584;SDS011;70137;56.482;9.154;2023-06-19T08:26:04;5.88;;;5.28;;
80584;SDS011;70137;56.482;9.154;2023-06-19T08:28:30;5.88;;;5.20;;
80584;SDS011;70137;56.482;9.154;2023-06-19T08:30:57;8.07;;;5.85;;
80584;SDS011;70137;56.482;9.154;2023-06-19T08:33:22;6.78;;;5.43;;
80584;SDS011;70137;56.482;9.154;2023-06-19T08:35:48;6.35;;;5.75;;
80584;SDS011;70137;56.482;9.154;2023-06-19T08:38:13;5.75;;;5.15;;
80584;SDS011;70137;56.482;9.154;2023-06-19T08:40:38;7.20;;;4.57;;
80584;SDS011;70137;56.482;9.154;2023-06-19T08:43:06;6.97;;;5.20;;
80584;SDS011;70137;56.482;9.154;2023-06-19T08:45:31;9.00;;;5.35;;
80584;SDS011;70137;56.482;9.154;2023-06-19T08:48:02;9.90;;;5.82;;
80584;SDS011;70137;56.482;9.154;2023-06-19T08:50:29;7.63;;;5.65;;
80584;SDS011;70137;56.482;9.154;2023-06-19T08:52:55;7.03;;;5.65;;
80584;SDS011;70137;56.482;9.154;2023-06-19T08:55:21;7.53;;;5.57;;
80584;SDS011;70137;56.482;9.154;2023-06-19T08:57:47;6.00;;;5.40;;
80584;SDS011;70137;56.482;9.154;2023-06-19T09:00:22;5.85;;;5.25;;
80584;SDS011;70137;56.482;9.154;2023-06-19T09:05:14;6.03;;;5.43;;
80584;SDS011;70137;56.482;9.154;2023-06-19T09:07:41;6.53;;;5.47;;
80584;SDS011;70137;56.482;9.154;2023-06-19T09:10:11;8.43;;;5.50;;
80584;SDS011;70137;56.482;9.154;2023-06-19T09:12:38;7.45;;;5.28;;
80584;SDS011;70137;56.482;9.154;2023-06-19T09:15:10;6.05;;;5.45;;
80584;SDS011;70137;56.482;9.154;2023-06-19T09:17:37;6.50;;;5.75;;
80584;SDS011;70137;56.482;9.154;2023-06-19T09:20:02;5.28;;;4.72;;
80584;SDS011;70137;56.482;9.154;2023-06-19T09:22:30;6.53;;;5.28;;
80584;SDS011;70137;56.482;9.154;2023-06-19T09:24:59;6.47;;;5.32;;
80584;SDS011;70137;56.482;9.154;2023-06-19T09:27:25;9.95;;;6.10;;
80584;SDS011;70137;56.482;9.154;2023-06-19T09:29:57;6.60;;;6.00;;
80584;SDS011;70137;56.482;9.154;2023-06-19T09:32:23;8.60;;;5.80;;
80584;SDS011;70137;56.482;9.154;2023-06-19T09:34:51;6.68;;;5.53;;
80584;SDS011;70137;56.482;9.154;2023-06-19T09:37:22;6.25;;;5.40;;
80584;SDS011;70137;56.482;9.154;2023-06-19T09:39:53;8.15;;;5.80;;
80584;SDS011;70137;56.482;9.154;2023-06-19T09:42:32;6.75;;;5.57;;
80584;SDS011;70137;56.482;9.154;2023-06-19T09:45:03;7.00;;;5.75;;
80584;SDS011;70137;56.482;9.154;2023-06-19T09:47:42;6.35;;;5.18;;
80584;SDS011;70137;56.482;9.154;2023-06-19T09:50:11;6.75;;;5.50;;
80584;SDS011;70137;56.482;9.154;2023-06-19T09:52:38;7.28;;;5.70;;
80584;SDS011;70137;56.482;9.154;2023-06-19T09:55:09;7.40;;;5.40;;
80584;SDS011;70137;56.482;9.154;2023-06-19T09:57:37;10.30;;;5.57;;
80584;SDS011;70137;56.482;9.154;2023-06-19T10:00:05;6.90;;;5.75;;
80584;SDS011;70137;56.482;9.154;2023-06-19T10:02:38;9.65;;;5.88;;
80584;SDS011;70137;56.482;9.154;2023-06-19T10:05:05;6.57;;;5.32;;
80584;SDS011;70137;56.482;9.154;2023-06-19T10:07:35;8.77;;;5.35;;
80584;SDS011;70137;56.482;9.154;2023-06-19T10:10:02;7.47;;;5.65;;
80584;SDS011;70137;56.482;9.154;2023-06-19T10:15:29;7.93;;;5.40;;
80584;SDS011;70137;56.482;9.154;2023-06-19T10:18:04;6.93;;;5.03;;
80584;SDS011;70137;56.482;9.154;2023-06-19T10:20:34;5.97;;;5.38;;
80584;SDS011;70137;56.482;9.154;2023-06-19T10:25:44;7.65;;;5.93;;
80584;SDS011;70137;56.482;9.154;2023-06-19T10:28:23;7.18;;;6.03;;
80584;SDS011;70137;56.482;9.154;2023-06-19T10:31:02;5.85;;;4.97;;
80584;SDS011;70137;56.482;9.154;2023-06-19T10:33:32;7.07;;;5.22;;
80584;SDS011;70137;56.482;9.154;2023-06-19T10:35:59;8.05;;;6.07;;
80584;SDS011;70137;56.482;9.154;2023-06-19T10:38:25;5.85;;;5.20;;
80584;SDS011;70137;56.482;9.154;2023-06-19T10:40:51;6.88;;;5.22;;
80584;SDS011;70137;56.482;9.154;2023-06-19T10:43:23;7.40;;;6.05;;
80584;SDS011;70137;56.482;9.154;2023-06-19T10:45:52;7.30;;;5.82;;
80584;SDS011;70137;56.482;9.154;2023-06-19T10:48:22;7.40;;;6.03;;
80584;SDS011;70137;56.482;9.154;2023-06-19T10:50:49;8.57;;;5.63;;
80584;SDS011;70137;56.482;9.154;2023-06-19T10:53:29;7.30;;;5.53;;
80584;SDS011;70137;56.482;9.154;2023-06-19T10:55:56;6.18;;;5.40;;
80584;SDS011;70137;56.482;9.154;2023-06-19T10:58:23;9.40;;;7.35;;
80584;SDS011;70137;56.482;9.154;2023-06-19T11:00:49;7.47;;;5.53;;
80584;SDS011;70137;56.482;9.154;2023-06-19T11:03:15;6.70;;;6.00;;
80584;SDS011;70137;56.482;9.154;2023-06-19T11:05:44;9.80;;;6.25;;
80584;SDS011;70137;56.482;9.154;2023-06-19T11:08:10;7.15;;;5.75;;
80584;SDS011;70137;56.482;9.154;2023-06-19T11:10:38;8.83;;;5.40;;
80584;SDS011;70137;56.482;9.154;2023-06-19T11:13:04;6.80;;;5.80;;
80584;SDS011;70137;56.482;9.154;2023-06-19T11:15:30;6.88;;;5.60;;
80584;SDS011;70137;56.482;9.154;2023-06-19T11:17:57;6.90;;;5.65;;
80584;SDS011;70137;56.482;9.154;2023-06-19T11:20:23;7.45;;;5.50;;
80584;SDS011;70137;56.482;9.154;2023-06-19T11:22:53;6.80;;;5.90;;
80584;SDS011;70137;56.482;9.154;2023-06-19T11:25:20;5.85;;;5.25;;
80584;SDS011;70137;56.482;9.154;2023-06-19T11:27:46;6.82;;;5.97;;
80584;SDS011;70137;56.482;9.154;2023-06-19T11:30:16;6.22;;;5.55;;
80584;SDS011;70137;56.482;9.154;2023-06-19T11:32:43;6.57;;;5.47;;
80584;SDS011;70137;56.482;9.154;2023-06-19T11:35:11;5.80;;;5.18;;
80584;SDS011;70137;56.482;9.154;2023-06-19T11:37:39;7.68;;;5.82;;
80584;SDS011;70137;56.482;9.154;2023-06-19T11:40:05;6.82;;;5.53;;
80584;SDS011;70137;56.482;9.154;2023-06-19T11:42:47;6.13;;;5.57;;
80584;SDS011;70137;56.482;9.154;2023-06-19T11:45:14;7.25;;;5.97;;
80584;SDS011;70137;56.482;9.154;2023-06-19T11:47:40;8.30;;;5.82;;
80584;SDS011;70137;56.482;9.154;2023-06-19T11:50:05;7.47;;;6.00;;
80584;SDS011;70137;56.482;9.154;2023-06-19T11:52:31;8.73;;;6.20;;
80584;SDS011;70137;56.482;9.154;2023-06-19T11:54:57;6.78;;;6.15;;
80584;SDS011;70137;56.482;9.154;2023-06-19T11:57:22;7.20;;;5.70;;
80584;SDS011;70137;56.482;9.154;2023-06-19T11:59:47;6.40;;;5.57;;
80584;SDS011;70137;56.482;9.154;2023-06-19T12:02:13;6.43;;;5.07;;
80584;SDS011;70137;56.482;9.154;2023-06-19T12:04:38;7.00;;;4.97;;
80584;SDS011;70137;56.482;9.154;2023-06-19T12:07:03;8.10;;;5.47;;
80584;SDS011;70137;56.482;9.154;2023-06-19T12:09:29;7.47;;;5.15;;
80584;SDS011;70137;56.482;9.154;2023-06-19T12:11:56;6.68;;;5.32;;
80584;SDS011;70137;56.482;9.154;2023-06-19T12:14:22;5.75;;;4.95;;
80584;SDS011;70137;56.482;9.154;2023-06-19T12:16:49;6.13;;;5.45;;
80584;SDS011;70137;56.482;9.154;2023-06-19T12:19:15;8.30;;;6.35;;
80584;SDS011;70137;56.482;9.154;2023-06-19T12:21:40;7.47;;;5.72;;
80584;SDS011;70137;56.482;9.154;2023-06-19T12:24:05;7.50;;;5.55;;
80584;SDS011;70137;56.482;9.154;2023-06-19T12:26:31;7.35;;;5.97;;
80584;SDS011;70137;56.482;9.154;2023-06-19T12:29:01;7.88;;;6.00;;
80584;SDS011;70137;56.482;9.154;2023-06-19T12:31:28;7.35;;;5.80;;
80584;SDS011;70137;56.482;9.154;2023-06-19T12:33:53;6.82;;;5.53;;
80584;SDS011;70137;56.482;9.154;2023-06-19T12:36:19;10.40;;;6.32;;
80584;SDS011;70137;56.482;9.154;2023-06-19T12:38:44;9.48;;;5.53;;
80584;SDS011;70137;56.482;9.154;2023-06-19T12:41:09;7.15;;;5.60;;
80584;SDS011;70137;56.482;9.154;2023-06-19T12:43:36;8.15;;;6.03;;
80584;SDS011;70137;56.482;9.154;2023-06-19T12:46:02;9.82;;;5.93;;
80584;SDS011;70137;56.482;9.154;2023-06-19T12:48:27;8.40;;;5.90;;
80584;SDS011;70137;56.482;9.154;2023-06-19T12:50:53;8.40;;;6.07;;
80584;SDS011;70137;56.482;9.154;2023-06-19T12:53:18;9.63;;;5.80;;
80584;SDS011;70137;56.482;9.154;2023-06-19T12:55:44;10.38;;;5.93;;
80584;SDS011;70137;56.482;9.154;2023-06-19T12:58:10;6.40;;;4.78;;
80584;SDS011;70137;56.482;9.154;2023-06-19T13:00:36;6.68;;;5.32;;
80584;SDS011;70137;56.482;9.154;2023-06-19T13:03:02;7.53;;;6.15;;
80584;SDS011;70137;56.482;9.154;2023-06-19T13:05:27;6.10;;;5.50;;
80584;SDS011;70137;56.482;9.154;2023-06-19T13:07:53;8.20;;;6.03;;
80584;SDS011;70137;56.482;9.154;2023-06-19T13:10:18;8.68;;;6.35;;
80584;SDS011;70137;56.482;9.154;2023-06-19T13:12:43;8.15;;;5.88;;
80584;SDS011;70137;56.482;9.154;2023-06-19T13:15:09;7.63;;;6.05;;
80584;SDS011;70137;56.482;9.154;2023-06-19T13:17:34;8.00;;;6.05;;
80584;SDS011;70137;56.482;9.154;2023-06-19T13:20:00;6.80;;;5.55;;
80584;SDS011;70137;56.482;9.154;2023-06-19T13:22:29;7.07;;;5.43;;
80584;SDS011;70137;56.482;9.154;2023-06-19T13:24:55;6.70;;;5.85;;
80584;SDS011;70137;56.482;9.154;2023-06-19T13:27:20;7.97;;;6.45;;
80584;SDS011;70137;56.482;9.154;2023-06-19T13:29:45;7.32;;;6.15;;
80584;SDS011;70137;56.482;9.154;2023-06-19T13:32:11;8.48;;;5.78;;
80584;SDS011;70137;56.482;9.154;2023-06-19T13:34:36;8.40;;;5.55;;
80584;SDS011;70137;56.482;9.154;2023-06-19T13:37:01;7.53;;;6.60;;
80584;SDS011;70137;56.482;9.154;2023-06-19T13:39:27;7.10;;;6.40;;
80584;SDS011;70137;56.482;9.154;2023-06-19T13:41:53;8.23;;;6.82;;
80584;SDS011;70137;56.482;9.154;2023-06-19T13:44:18;7.57;;;5.65;;
80584;SDS011;70137;56.482;9.154;2023-06-19T13:46:44;8.73;;;6.68;;
80584;SDS011;70137;56.482;9.154;2023-06-19T13:49:10;7.03;;;6.32;;
80584;SDS011;70137;56.482;9.154;2023-06-19T13:51:36;8.57;;;6.20;;
80584;SDS011;70137;56.482;9.154;2023-06-19T13:54:01;7.18;;;6.47;;
80584;SDS011;70137;56.482;9.154;2023-06-19T13:56:29;8.73;;;7.15;;
80584;SDS011;70137;56.482;9.154;2023-06-19T13:58:55;7.20;;;6.03;;
80584;SDS011;70137;56.482;9.154;2023-06-19T14:01:20;8.57;;;6.18;;
80584;SDS011;70137;56.482;9.154;2023-06-19T14:03:45;8.15;;;6.45;;
80584;SDS011;70137;56.482;9.154;2023-06-19T14:06:10;6.75;;;6.05;;
80584;SDS011;70137;56.482;9.154;2023-06-19T14:08:37;8.27;;;6.82;;
80584;SDS011;70137;56.482;9.154;2023-06-19T14:11:04;7.97;;;6.80;;
80584;SDS011;70137;56.482;9.154;2023-06-19T14:13:30;7.63;;;6.82;;
80584;SDS011;70137;56.482;9.154;2023-06-19T14:15:55;9.23;;;6.90;;
80584;SDS011;70137;56.482;9.154;2023-06-19T14:18:21;9.05;;;6.82;;
80584;SDS011;70137;56.482;9.154;2023-06-19T14:20:46;7.50;;;6.50;;
80584;SDS011;70137;56.482;9.154;2023-06-19T14:23:14;9.73;;;7.25;;
80584;SDS011;70137;56.482;9.154;2023-06-19T14:25:39;9.75;;;7.38;;
80584;SDS011;70137;56.482;9.154;2023-06-19T14:28:04;9.50;;;7.15;;
80584;SDS011;70137;56.482;9.154;2023-06-19T14:30:30;8.32;;;7.53;;
80584;SDS011;70137;56.482;9.154;2023-06-19T14:32:55;7.53;;;6.80;;
80584;SDS011;70137;56.482;9.154;2023-06-19T14:35:20;7.97;;;7.18;;
80584;SDS011;70137;56.482;9.154;2023-06-19T14:37:46;8.77;;;7.43;;
80584;SDS011;70137;56.482;9.154;2023-06-19T14:40:11;9.45;;;8.25;;
80584;SDS011;70137;56.482;9.154;2023-06-19T14:42:37;8.48;;;7.43;;
80584;SDS011;70137;56.482;9.154;2023-06-19T14:45:02;10.05;;;7.57;;
80584;SDS011;70137;56.482;9.154;2023-06-19T14:47:28;8.65;;;7.72;;
80584;SDS011;70137;56.482;9.154;2023-06-19T14:49:54;7.95;;;6.97;;
80584;SDS011;70137;56.482;9.154;2023-06-19T14:52:19;9.95;;;7.43;;